sensor_id;sensor_type;location;lat;lon;timestamp;temperature;humidity
1379;DHT22;683;48.738;9.226;2023-07-31T00:02:06;13.60;99.90
1379;DHT22;683;48.738;9.226;2023-07-31T00:04:33;13.60;99.90
1379;DHT22;683;48.738;9.226;2023-07-31T00:07:00;13.50;99.90
1379;DHT22;683;48.738;9.226;2023-07-31T00:09:31;13.40;99.90
1379;DHT22;683;48.738;9.226;2023-07-31T00:11:58;13.40;99.90
1379;DHT22;683;48.738;9.226;2023-07-31T00:14:26;13.40;99.90
1379;DHT22;683;48.738;9.226;2023-07-31T00:16:53;13.40;99.90
1379;DHT22;683;48.738;9.226;2023-07-31T00:19:20;13.40;99.90
1379;DHT22;683;48.738;9.226;2023-07-31T00:21:47;13.30;99.90
1379;DHT22;683;48.738;9.226;2023-07-31T00:24:14;13.30;99.90
1379;DHT22;683;48.738;9.226;2023-07-31T00:26:42;13.30;99.90
1379;DHT22;683;48.738;9.226;2023-07-31T00:29:10;13.30;99.90
1379;DHT22;683;48.738;9.226;2023-07-31T00:31:37;13.20;99.90
1379;DHT22;683;48.738;9.226;2023-07-31T00:34:04;13.20;99.90
1379;DHT22;683;48.738;9.226;2023-07-31T00:36:35;13.20;99.90
1379;DHT22;683;48.738;9.226;2023-07-31T00:39:02;13.20;99.90
1379;DHT22;683;48.738;9.226;2023-07-31T00:41:30;13.10;99.90
1379;DHT22;683;48.738;9.226;2023-07-31T00:43:58;13.10;99.90
1379;DHT22;683;48.738;9.226;2023-07-31T00:46:27;13.10;99.90
1379;DHT22;683;48.738;9.226;2023-07-31T00:48:55;13.20;99.90
1379;DHT22;683;48.738;9.226;2023-07-31T00:51:25;13.20;99.90
1379;DHT22;683;48.738;9.226;2023-07-31T00:53:54;13.20;99.90
1379;DHT22;683;48.738;9.226;2023-07-31T00:56:22;13.20;99.90
1379;DHT22;683;48.738;9.226;2023-07-31T00:58:49;13.20;99.90
1379;DHT22;683;48.738;9.226;2023-07-31T01:01:17;13.30;99.90
1379;DHT22;683;48.738;9.226;2023-07-31T01:03:45;13.20;99.90
1379;DHT22;683;48.738;9.226;2023-07-31T01:06:17;13.20;99.90
1379;DHT22;683;48.738;9.226;2023-07-31T01:08:54;13.20;99.90
1379;DHT22;683;48.738;9.226;2023-07-31T01:11:25;13.20;99.90
1379;DHT22;683;48.738;9.226;2023-07-31T01:13:54;13.20;99.90
1379;DHT22;683;48.738;9.226;2023-07-31T01:16:24;13.20;99.90
1379;DHT22;683;48.738;9.226;2023-07-31T01:18:51;13.20;99.90
1379;DHT22;683;48.738;9.226;2023-07-31T01:21:48;13.20;99.90
1379;DHT22;683;48.738;9.226;2023-07-31T01:24:22;13.30;99.90
1379;DHT22;683;48.738;9.226;2023-07-31T01:26:55;13.20;99.90
1379;DHT22;683;48.738;9.226;2023-07-31T01:29:29;13.20;99.90
1379;DHT22;683;48.738;9.226;2023-07-31T01:32:01;13.20;99.90
1379;DHT22;683;48.738;9.226;2023-07-31T01:34:29;13.20;99.90
1379;DHT22;683;48.738;9.226;2023-07-31T01:36:58;13.20;99.90
1379;DHT22;683;48.738;9.226;2023-07-31T01:39:25;13.20;99.90
1379;DHT22;683;48.738;9.226;2023-07-31T01:41:54;13.20;99.90
1379;DHT22;683;48.738;9.226;2023-07-31T01:44:21;13.10;99.90
1379;DHT22;683;48.738;9.226;2023-07-31T01:46:48;13.10;99.90
1379;DHT22;683;48.738;9.226;2023-07-31T01:49:15;13.10;99.90
1379;DHT22;683;48.738;9.226;2023-07-31T01:51:42;13.10;99.90
1379;DHT22;683;48.738;9.226;2023-07-31T01:54:12;13.10;99.90
1379;DHT22;683;48.738;9.226;2023-07-31T01:56:39;13.10;99.90
1379;DHT22;683;48.738;9.226;2023-07-31T01:59:08;13.10;99.90
1379;DHT22;683;48.738;9.226;2023-07-31T02:01:35;13.10;99.90
1379;DHT22;683;48.738;9.226;2023-07-31T02:04:03;13.10;99.90
1379;DHT22;683;48.738;9.226;2023-07-31T02:06:30;13.10;99.90
1379;DHT22;683;48.738;9.226;2023-07-31T02:08:57;13.10;99.90
1379;DHT22;683;48.738;9.226;2023-07-31T02:11:25;13.10;99.90
1379;DHT22;683;48.738;9.226;2023-07-31T02:13:52;13.00;99.90
1379;DHT22;683;48.738;9.226;2023-07-31T02:16:20;13.00;99.90
1379;DHT22;683;48.738;9.226;2023-07-31T02:18:47;13.00;99.90
1379;DHT22;683;48.738;9.226;2023-07-31T02:21:15;13.00;99.90
1379;DHT22;683;48.738;9.226;2023-07-31T02:23:43;13.00;99.90
1379;DHT22;683;48.738;9.226;2023-07-31T02:26:11;13.00;99.90
1379;DHT22;683;48.738;9.226;2023-07-31T02:28:38;13.10;99.90
1379;DHT22;683;48.738;9.226;2023-07-31T02:31:05;13.10;99.90
1379;DHT22;683;48.738;9.226;2023-07-31T02:33:35;13.20;99.90
1379;DHT22;683;48.738;9.226;2023-07-31T02:36:02;13.10;99.90
1379;DHT22;683;48.738;9.226;2023-07-31T02:38:30;13.10;99.90
1379;DHT22;683;48.738;9.226;2023-07-31T02:40:57;13.00;99.90
1379;DHT22;683;48.738;9.226;2023-07-31T02:43:24;12.90;99.90
1379;DHT22;683;48.738;9.226;2023-07-31T02:45:51;12.90;99.90
1379;DHT22;683;48.738;9.226;2023-07-31T02:48:19;12.80;99.90
1379;DHT22;683;48.738;9.226;2023-07-31T02:50:48;12.70;99.90
1379;DHT22;683;48.738;9.226;2023-07-31T02:53:15;12.70;99.90
1379;DHT22;683;48.738;9.226;2023-07-31T02:55:42;12.60;99.90
1379;DHT22;683;48.738;9.226;2023-07-31T02:58:09;12.60;99.90
1379;DHT22;683;48.738;9.226;2023-07-31T03:00:42;12.50;99.90
1379;DHT22;683;48.738;9.226;2023-07-31T03:03:09;12.50;99.90
1379;DHT22;683;48.738;9.226;2023-07-31T03:05:36;12.50;99.90
1379;DHT22;683;48.738;9.226;2023-07-31T03:08:04;12.40;99.90
1379;DHT22;683;48.738;9.226;2023-07-31T03:10:32;12.40;99.90
1379;DHT22;683;48.738;9.226;2023-07-31T03:13:02;12.30;99.90
1379;DHT22;683;48.738;9.226;2023-07-31T03:15:29;12.30;99.90
1379;DHT22;683;48.738;9.226;2023-07-31T03:17:57;12.30;99.90
1379;DHT22;683;48.738;9.226;2023-07-31T03:20:24;12.30;99.90
1379;DHT22;683;48.738;9.226;2023-07-31T03:22:51;12.30;99.90
1379;DHT22;683;48.738;9.226;2023-07-31T03:25:19;12.30;99.90
1379;DHT22;683;48.738;9.226;2023-07-31T03:27:47;12.30;99.90
1379;DHT22;683;48.738;9.226;2023-07-31T03:30:14;12.30;99.90
1379;DHT22;683;48.738;9.226;2023-07-31T03:32:41;12.30;99.90
1379;DHT22;683;48.738;9.226;2023-07-31T03:35:08;12.40;99.90
1379;DHT22;683;48.738;9.226;2023-07-31T03:37:36;12.40;99.90
1379;DHT22;683;48.738;9.226;2023-07-31T03:40:05;12.40;99.90
1379;DHT22;683;48.738;9.226;2023-07-31T03:42:33;12.40;99.90
1379;DHT22;683;48.738;9.226;2023-07-31T03:45:01;12.40;99.90
1379;DHT22;683;48.738;9.226;2023-07-31T03:47:29;12.40;99.90
1379;DHT22;683;48.738;9.226;2023-07-31T03:49:57;12.40;99.90
1379;DHT22;683;48.738;9.226;2023-07-31T03:52:24;12.40;99.90
1379;DHT22;683;48.738;9.226;2023-07-31T03:54:51;12.50;99.90
1379;DHT22;683;48.738;9.226;2023-07-31T03:57:18;12.50;99.90
1379;DHT22;683;48.738;9.226;2023-07-31T03:59:46;12.60;99.90
1379;DHT22;683;48.738;9.226;2023-07-31T04:02:13;12.70;99.90
1379;DHT22;683;48.738;9.226;2023-07-31T04:04:41;12.70;99.90
1379;DHT22;683;48.738;9.226;2023-07-31T04:07:08;12.80;99.90
1379;DHT22;683;48.738;9.226;2023-07-31T04:09:35;13.00;99.90
1379;DHT22;683;48.738;9.226;2023-07-31T04:12:02;13.10;99.90
1379;DHT22;683;48.738;9.226;2023-07-31T04:14:30;13.20;99.90
1379;DHT22;683;48.738;9.226;2023-07-31T04:16:58;13.30;99.90
1379;DHT22;683;48.738;9.226;2023-07-31T04:19:25;13.40;99.90
1379;DHT22;683;48.738;9.226;2023-07-31T04:21:52;13.60;99.90
1379;DHT22;683;48.738;9.226;2023-07-31T04:24:19;13.70;99.90
1379;DHT22;683;48.738;9.226;2023-07-31T04:26:50;13.80;99.90
1379;DHT22;683;48.738;9.226;2023-07-31T04:29:17;13.80;99.90
1379;DHT22;683;48.738;9.226;2023-07-31T04:31:44;13.90;99.90
1379;DHT22;683;48.738;9.226;2023-07-31T04:34:12;14.00;99.90
1379;DHT22;683;48.738;9.226;2023-07-31T04:36:40;14.00;99.90
1379;DHT22;683;48.738;9.226;2023-07-31T04:39:07;14.10;99.90
1379;DHT22;683;48.738;9.226;2023-07-31T04:41:34;14.10;99.90
1379;DHT22;683;48.738;9.226;2023-07-31T04:44:01;14.20;99.90
1379;DHT22;683;48.738;9.226;2023-07-31T04:46:29;14.20;99.90
1379;DHT22;683;48.738;9.226;2023-07-31T04:48:57;14.30;99.90
1379;DHT22;683;48.738;9.226;2023-07-31T04:51:25;14.30;99.90
1379;DHT22;683;48.738;9.226;2023-07-31T04:53:52;14.40;99.90
1379;DHT22;683;48.738;9.226;2023-07-31T04:56:19;14.50;99.90
1379;DHT22;683;48.738;9.226;2023-07-31T04:58:46;14.50;99.90
1379;DHT22;683;48.738;9.226;2023-07-31T05:01:13;14.60;99.90
1379;DHT22;683;48.738;9.226;2023-07-31T05:03:40;14.70;99.90
1379;DHT22;683;48.738;9.226;2023-07-31T05:06:07;14.70;99.90
1379;DHT22;683;48.738;9.226;2023-07-31T05:08:36;14.70;99.90
1379;DHT22;683;48.738;9.226;2023-07-31T05:11:03;14.70;99.90
1379;DHT22;683;48.738;9.226;2023-07-31T05:13:30;14.70;99.90
1379;DHT22;683;48.738;9.226;2023-07-31T05:15:57;14.70;99.90
1379;DHT22;683;48.738;9.226;2023-07-31T05:18:25;14.70;99.90
1379;DHT22;683;48.738;9.226;2023-07-31T05:20:52;14.70;99.90
1379;DHT22;683;48.738;9.226;2023-07-31T05:23:19;14.70;99.90
1379;DHT22;683;48.738;9.226;2023-07-31T05:25:47;14.70;99.90
1379;DHT22;683;48.738;9.226;2023-07-31T05:28:14;14.80;99.90
1379;DHT22;683;48.738;9.226;2023-07-31T05:30:41;14.80;99.90
1379;DHT22;683;48.738;9.226;2023-07-31T05:33:09;14.90;99.90
1379;DHT22;683;48.738;9.226;2023-07-31T05:35:36;14.90;99.90
1379;DHT22;683;48.738;9.226;2023-07-31T05:38:03;14.90;99.90
1379;DHT22;683;48.738;9.226;2023-07-31T05:40:32;15.00;99.90
1379;DHT22;683;48.738;9.226;2023-07-31T05:43:01;15.10;99.90
1379;DHT22;683;48.738;9.226;2023-07-31T05:45:28;15.30;99.90
1379;DHT22;683;48.738;9.226;2023-07-31T05:47:55;15.60;99.90
1379;DHT22;683;48.738;9.226;2023-07-31T05:50:22;15.70;99.90
1379;DHT22;683;48.738;9.226;2023-07-31T05:52:49;16.10;99.90
1379;DHT22;683;48.738;9.226;2023-07-31T05:55:16;16.30;99.90
1379;DHT22;683;48.738;9.226;2023-07-31T05:57:43;16.50;99.90
1379;DHT22;683;48.738;9.226;2023-07-31T06:00:14;16.80;99.90
1379;DHT22;683;48.738;9.226;2023-07-31T06:02:41;16.90;99.90
1379;DHT22;683;48.738;9.226;2023-07-31T06:05:08;17.00;99.90
1379;DHT22;683;48.738;9.226;2023-07-31T06:07:36;17.10;99.90
1379;DHT22;683;48.738;9.226;2023-07-31T06:10:04;17.30;99.60
1379;DHT22;683;48.738;9.226;2023-07-31T06:12:31;17.50;98.90
1379;DHT22;683;48.738;9.226;2023-07-31T06:14:58;17.80;98.00
1379;DHT22;683;48.738;9.226;2023-07-31T06:17:27;18.00;97.00
1379;DHT22;683;48.738;9.226;2023-07-31T06:19:54;18.20;96.20
1379;DHT22;683;48.738;9.226;2023-07-31T06:22:21;18.30;95.60
1379;DHT22;683;48.738;9.226;2023-07-31T06:24:49;18.30;95.60
1379;DHT22;683;48.738;9.226;2023-07-31T06:27:16;18.30;95.40
1379;DHT22;683;48.738;9.226;2023-07-31T06:29:43;18.40;95.00
1379;DHT22;683;48.738;9.226;2023-07-31T06:32:10;18.40;94.50
1379;DHT22;683;48.738;9.226;2023-07-31T06:34:38;18.50;94.00
1379;DHT22;683;48.738;9.226;2023-07-31T06:37:06;18.70;93.50
1379;DHT22;683;48.738;9.226;2023-07-31T06:39:33;19.00;92.90
1379;DHT22;683;48.738;9.226;2023-07-31T06:42:00;19.40;92.50
1379;DHT22;683;48.738;9.226;2023-07-31T06:44:27;19.60;91.50
1379;DHT22;683;48.738;9.226;2023-07-31T06:46:54;19.60;90.50
1379;DHT22;683;48.738;9.226;2023-07-31T06:49:21;19.50;90.20
1379;DHT22;683;48.738;9.226;2023-07-31T06:51:50;19.30;90.50
1379;DHT22;683;48.738;9.226;2023-07-31T06:54:17;19.30;90.60
1379;DHT22;683;48.738;9.226;2023-07-31T06:56:44;19.40;90.50
1379;DHT22;683;48.738;9.226;2023-07-31T06:59:11;19.60;90.40
1379;DHT22;683;48.738;9.226;2023-07-31T07:01:38;19.80;89.80
1379;DHT22;683;48.738;9.226;2023-07-31T07:04:06;19.90;89.60
1379;DHT22;683;48.738;9.226;2023-07-31T07:06:33;20.00;88.50
1379;DHT22;683;48.738;9.226;2023-07-31T07:09:02;20.00;88.00
1379;DHT22;683;48.738;9.226;2023-07-31T07:11:30;20.00;86.20
1379;DHT22;683;48.738;9.226;2023-07-31T07:13:58;19.90;85.80
1379;DHT22;683;48.738;9.226;2023-07-31T07:16:25;19.90;86.20
1379;DHT22;683;48.738;9.226;2023-07-31T07:18:53;19.90;86.60
1379;DHT22;683;48.738;9.226;2023-07-31T07:21:20;20.00;86.40
1379;DHT22;683;48.738;9.226;2023-07-31T07:23:47;20.40;86.30
1379;DHT22;683;48.738;9.226;2023-07-31T07:26:15;20.80;83.90
1379;DHT22;683;48.738;9.226;2023-07-31T07:28:43;21.00;81.70
1379;DHT22;683;48.738;9.226;2023-07-31T07:31:11;21.20;81.20
1379;DHT22;683;48.738;9.226;2023-07-31T07:33:39;21.60;80.20
1379;DHT22;683;48.738;9.226;2023-07-31T07:36:06;21.80;79.20
1379;DHT22;683;48.738;9.226;2023-07-31T07:38:36;21.80;78.10
1379;DHT22;683;48.738;9.226;2023-07-31T07:41:08;21.70;77.90
1379;DHT22;683;48.738;9.226;2023-07-31T07:43:37;21.50;78.00
1379;DHT22;683;48.738;9.226;2023-07-31T07:46:04;21.20;77.50
1379;DHT22;683;48.738;9.226;2023-07-31T07:48:32;21.00;77.80
1379;DHT22;683;48.738;9.226;2023-07-31T07:50:59;20.80;77.60
1379;DHT22;683;48.738;9.226;2023-07-31T07:53:26;20.80;77.20
1379;DHT22;683;48.738;9.226;2023-07-31T07:55:53;20.70;78.00
1379;DHT22;683;48.738;9.226;2023-07-31T07:58:21;20.50;79.20
1379;DHT22;683;48.738;9.226;2023-07-31T08:00:51;20.50;78.00
1379;DHT22;683;48.738;9.226;2023-07-31T08:03:18;20.60;78.10
1379;DHT22;683;48.738;9.226;2023-07-31T08:05:45;20.80;78.30
1379;DHT22;683;48.738;9.226;2023-07-31T08:08:15;20.90;77.20
1379;DHT22;683;48.738;9.226;2023-07-31T08:10:43;21.00;77.60
1379;DHT22;683;48.738;9.226;2023-07-31T08:13:10;21.10;77.60
1379;DHT22;683;48.738;9.226;2023-07-31T08:15:38;21.00;76.80
1379;DHT22;683;48.738;9.226;2023-07-31T08:18:06;21.00;77.00
1379;DHT22;683;48.738;9.226;2023-07-31T08:20:33;21.00;77.20
1379;DHT22;683;48.738;9.226;2023-07-31T08:23:00;21.00;76.00
1379;DHT22;683;48.738;9.226;2023-07-31T08:25:28;20.90;76.00
1379;DHT22;683;48.738;9.226;2023-07-31T08:27:55;21.00;76.60
1379;DHT22;683;48.738;9.226;2023-07-31T08:30:23;21.00;75.80
1379;DHT22;683;48.738;9.226;2023-07-31T08:32:50;21.10;74.40
1379;DHT22;683;48.738;9.226;2023-07-31T08:35:18;21.20;75.10
1379;DHT22;683;48.738;9.226;2023-07-31T08:37:46;21.40;75.80
1379;DHT22;683;48.738;9.226;2023-07-31T08:40:13;21.60;75.40
1379;DHT22;683;48.738;9.226;2023-07-31T08:42:44;21.80;74.00
1379;DHT22;683;48.738;9.226;2023-07-31T08:45:14;22.00;72.80
1379;DHT22;683;48.738;9.226;2023-07-31T08:47:45;22.30;72.50
1379;DHT22;683;48.738;9.226;2023-07-31T08:50:13;22.50;70.90
1379;DHT22;683;48.738;9.226;2023-07-31T08:52:42;22.80;70.00
1379;DHT22;683;48.738;9.226;2023-07-31T08:55:10;23.10;70.40
1379;DHT22;683;48.738;9.226;2023-07-31T08:57:38;23.20;68.50
1379;DHT22;683;48.738;9.226;2023-07-31T09:00:08;23.00;68.30
1379;DHT22;683;48.738;9.226;2023-07-31T09:02:40;23.00;68.60
1379;DHT22;683;48.738;9.226;2023-07-31T09:05:09;23.10;68.20
1379;DHT22;683;48.738;9.226;2023-07-31T09:07:38;23.20;68.50
1379;DHT22;683;48.738;9.226;2023-07-31T09:10:07;23.20;68.30
1379;DHT22;683;48.738;9.226;2023-07-31T09:12:34;23.10;67.80
1379;DHT22;683;48.738;9.226;2023-07-31T09:15:02;22.90;68.00
1379;DHT22;683;48.738;9.226;2023-07-31T09:17:30;22.90;68.70
1379;DHT22;683;48.738;9.226;2023-07-31T09:20:07;22.90;68.30
1379;DHT22;683;48.738;9.226;2023-07-31T09:22:39;23.00;68.00
1379;DHT22;683;48.738;9.226;2023-07-31T09:25:15;23.20;68.20
1379;DHT22;683;48.738;9.226;2023-07-31T09:27:47;23.30;66.80
1379;DHT22;683;48.738;9.226;2023-07-31T09:30:15;23.40;66.50
1379;DHT22;683;48.738;9.226;2023-07-31T09:32:43;23.60;66.70
1379;DHT22;683;48.738;9.226;2023-07-31T09:35:18;23.70;66.00
1379;DHT22;683;48.738;9.226;2023-07-31T09:37:49;23.70;66.10
1379;DHT22;683;48.738;9.226;2023-07-31T09:40:28;23.60;65.80
1379;DHT22;683;48.738;9.226;2023-07-31T09:42:59;23.60;65.90
1379;DHT22;683;48.738;9.226;2023-07-31T09:45:27;23.60;66.10
1379;DHT22;683;48.738;9.226;2023-07-31T09:47:55;23.60;65.40
1379;DHT22;683;48.738;9.226;2023-07-31T09:50:23;23.50;66.30
1379;DHT22;683;48.738;9.226;2023-07-31T09:52:53;23.50;66.80
1379;DHT22;683;48.738;9.226;2023-07-31T09:55:20;23.40;66.60
1379;DHT22;683;48.738;9.226;2023-07-31T09:57:49;23.20;66.80
1379;DHT22;683;48.738;9.226;2023-07-31T10:00:17;23.10;67.10
1379;DHT22;683;48.738;9.226;2023-07-31T10:02:46;23.10;67.60
1379;DHT22;683;48.738;9.226;2023-07-31T10:05:14;23.20;67.70
1379;DHT22;683;48.738;9.226;2023-07-31T10:07:43;23.50;67.80
1379;DHT22;683;48.738;9.226;2023-07-31T10:10:13;23.80;66.50
1379;DHT22;683;48.738;9.226;2023-07-31T10:12:41;23.90;66.10
1379;DHT22;683;48.738;9.226;2023-07-31T10:15:11;24.00;66.40
1379;DHT22;683;48.738;9.226;2023-07-31T10:17:38;24.10;66.60
1379;DHT22;683;48.738;9.226;2023-07-31T10:20:07;24.20;66.10
1379;DHT22;683;48.738;9.226;2023-07-31T10:22:35;24.20;65.60
1379;DHT22;683;48.738;9.226;2023-07-31T10:25:02;24.20;63.60
1379;DHT22;683;48.738;9.226;2023-07-31T10:27:29;24.00;62.10
1379;DHT22;683;48.738;9.226;2023-07-31T10:29:58;23.90;63.00
1379;DHT22;683;48.738;9.226;2023-07-31T10:32:28;23.90;63.40
1379;DHT22;683;48.738;9.226;2023-07-31T10:34:56;24.10;63.20
1379;DHT22;683;48.738;9.226;2023-07-31T10:37:25;24.20;62.80
1379;DHT22;683;48.738;9.226;2023-07-31T10:39:57;24.50;63.80
1379;DHT22;683;48.738;9.226;2023-07-31T10:42:30;24.50;61.80
1379;DHT22;683;48.738;9.226;2023-07-31T10:44:58;24.60;62.00
1379;DHT22;683;48.738;9.226;2023-07-31T10:47:27;24.50;62.50
1379;DHT22;683;48.738;9.226;2023-07-31T10:50:13;24.70;63.20
1379;DHT22;683;48.738;9.226;2023-07-31T10:52:45;25.00;61.20
1379;DHT22;683;48.738;9.226;2023-07-31T10:55:30;25.20;60.40
1379;DHT22;683;48.738;9.226;2023-07-31T10:58:05;25.20;59.40
1379;DHT22;683;48.738;9.226;2023-07-31T11:00:33;25.20;59.30
1379;DHT22;683;48.738;9.226;2023-07-31T11:03:03;25.20;58.50
1379;DHT22;683;48.738;9.226;2023-07-31T11:05:50;25.20;59.50
1379;DHT22;683;48.738;9.226;2023-07-31T11:08:23;25.20;58.70
1379;DHT22;683;48.738;9.226;2023-07-31T11:11:04;25.20;59.30
1379;DHT22;683;48.738;9.226;2023-07-31T11:13:33;25.30;58.90
1379;DHT22;683;48.738;9.226;2023-07-31T11:16:00;25.50;59.00
1379;DHT22;683;48.738;9.226;2023-07-31T11:18:29;25.70;57.80
1379;DHT22;683;48.738;9.226;2023-07-31T11:20:56;25.60;57.30
1379;DHT22;683;48.738;9.226;2023-07-31T11:23:23;25.40;57.70
1379;DHT22;683;48.738;9.226;2023-07-31T11:25:51;25.30;58.10
1379;DHT22;683;48.738;9.226;2023-07-31T11:28:19;25.30;58.40
1379;DHT22;683;48.738;9.226;2023-07-31T11:30:48;25.30;58.90
1379;DHT22;683;48.738;9.226;2023-07-31T11:33:18;25.20;58.70
1379;DHT22;683;48.738;9.226;2023-07-31T11:35:48;25.10;59.10
1379;DHT22;683;48.738;9.226;2023-07-31T11:38:21;24.90;59.00
1379;DHT22;683;48.738;9.226;2023-07-31T11:40:49;24.80;59.60
1379;DHT22;683;48.738;9.226;2023-07-31T11:43:18;24.70;59.80
1379;DHT22;683;48.738;9.226;2023-07-31T11:45:47;24.70;60.20
1379;DHT22;683;48.738;9.226;2023-07-31T11:48:25;24.90;60.40
1379;DHT22;683;48.738;9.226;2023-07-31T11:50:57;25.10;59.60
1379;DHT22;683;48.738;9.226;2023-07-31T11:53:27;25.40;59.60
1379;DHT22;683;48.738;9.226;2023-07-31T11:55:56;25.60;59.10
1379;DHT22;683;48.738;9.226;2023-07-31T11:58:24;25.70;58.40
1379;DHT22;683;48.738;9.226;2023-07-31T12:00:52;25.70;58.30
1379;DHT22;683;48.738;9.226;2023-07-31T12:03:20;25.60;58.40
1379;DHT22;683;48.738;9.226;2023-07-31T12:05:47;25.40;59.40
1379;DHT22;683;48.738;9.226;2023-07-31T12:08:16;25.10;59.30
1379;DHT22;683;48.738;9.226;2023-07-31T12:10:43;25.00;59.60
1379;DHT22;683;48.738;9.226;2023-07-31T12:13:19;25.10;60.00
1379;DHT22;683;48.738;9.226;2023-07-31T12:15:47;25.20;60.20
1379;DHT22;683;48.738;9.226;2023-07-31T12:18:16;25.40;59.90
1379;DHT22;683;48.738;9.226;2023-07-31T12:20:49;25.70;59.30
1379;DHT22;683;48.738;9.226;2023-07-31T12:23:23;25.90;58.90
1379;DHT22;683;48.738;9.226;2023-07-31T12:26:00;25.90;58.80
1379;DHT22;683;48.738;9.226;2023-07-31T12:28:28;25.80;58.90
1379;DHT22;683;48.738;9.226;2023-07-31T12:30:57;25.60;59.00
1379;DHT22;683;48.738;9.226;2023-07-31T12:33:30;25.40;59.20
1379;DHT22;683;48.738;9.226;2023-07-31T12:36:00;25.40;59.60
1379;DHT22;683;48.738;9.226;2023-07-31T12:38:29;25.30;60.30
1379;DHT22;683;48.738;9.226;2023-07-31T12:40:56;25.30;60.10
1379;DHT22;683;48.738;9.226;2023-07-31T12:43:23;25.00;60.50
1379;DHT22;683;48.738;9.226;2023-07-31T12:45:50;24.70;61.10
1379;DHT22;683;48.738;9.226;2023-07-31T12:48:17;24.40;61.20
1379;DHT22;683;48.738;9.226;2023-07-31T12:50:45;24.10;62.00
1379;DHT22;683;48.738;9.226;2023-07-31T12:53:12;23.90;62.40
1379;DHT22;683;48.738;9.226;2023-07-31T12:55:40;23.60;62.90
1379;DHT22;683;48.738;9.226;2023-07-31T12:58:07;23.50;63.80
1379;DHT22;683;48.738;9.226;2023-07-31T13:00:34;23.40;64.30
1379;DHT22;683;48.738;9.226;2023-07-31T13:03:02;23.60;64.60
1379;DHT22;683;48.738;9.226;2023-07-31T13:05:29;23.80;64.40
1379;DHT22;683;48.738;9.226;2023-07-31T13:07:56;24.20;63.60
1379;DHT22;683;48.738;9.226;2023-07-31T13:10:23;24.80;63.40
1379;DHT22;683;48.738;9.226;2023-07-31T13:12:53;25.20;62.40
1379;DHT22;683;48.738;9.226;2023-07-31T13:15:20;25.40;61.30
1379;DHT22;683;48.738;9.226;2023-07-31T13:17:48;25.40;60.80
1379;DHT22;683;48.738;9.226;2023-07-31T13:20:15;25.50;60.60
1379;DHT22;683;48.738;9.226;2023-07-31T13:22:42;25.90;59.60
1379;DHT22;683;48.738;9.226;2023-07-31T13:25:09;26.50;57.70
1379;DHT22;683;48.738;9.226;2023-07-31T13:27:36;27.30;56.50
1379;DHT22;683;48.738;9.226;2023-07-31T13:30:06;27.80;54.80
1379;DHT22;683;48.738;9.226;2023-07-31T13:32:33;27.90;54.10
1379;DHT22;683;48.738;9.226;2023-07-31T13:35:05;28.00;54.60
1379;DHT22;683;48.738;9.226;2023-07-31T13:37:33;28.10;54.10
1379;DHT22;683;48.738;9.226;2023-07-31T13:40:01;28.20;54.10
1379;DHT22;683;48.738;9.226;2023-07-31T13:42:30;28.20;53.80
1379;DHT22;683;48.738;9.226;2023-07-31T13:44:57;28.60;53.20
1379;DHT22;683;48.738;9.226;2023-07-31T13:47:26;28.50;53.30
1379;DHT22;683;48.738;9.226;2023-07-31T13:49:53;28.40;53.20
1379;DHT22;683;48.738;9.226;2023-07-31T13:52:20;28.40;53.90
1379;DHT22;683;48.738;9.226;2023-07-31T13:54:47;28.60;53.90
1379;DHT22;683;48.738;9.226;2023-07-31T13:57:15;28.70;53.50
1379;DHT22;683;48.738;9.226;2023-07-31T13:59:42;28.80;53.30
1379;DHT22;683;48.738;9.226;2023-07-31T14:02:10;28.80;53.00
1379;DHT22;683;48.738;9.226;2023-07-31T14:04:38;28.60;53.30
1379;DHT22;683;48.738;9.226;2023-07-31T14:07:05;28.30;53.30
1379;DHT22;683;48.738;9.226;2023-07-31T14:09:32;27.80;54.10
1379;DHT22;683;48.738;9.226;2023-07-31T14:12:00;27.30;55.90
1379;DHT22;683;48.738;9.226;2023-07-31T14:14:27;27.00;56.20
1379;DHT22;683;48.738;9.226;2023-07-31T14:16:54;26.60;57.00
1379;DHT22;683;48.738;9.226;2023-07-31T14:19:21;26.30;57.30
1379;DHT22;683;48.738;9.226;2023-07-31T14:21:49;26.00;58.00
1379;DHT22;683;48.738;9.226;2023-07-31T14:24:16;25.80;58.40
1379;DHT22;683;48.738;9.226;2023-07-31T14:26:43;25.60;59.20
1379;DHT22;683;48.738;9.226;2023-07-31T14:29:10;25.50;59.40
1379;DHT22;683;48.738;9.226;2023-07-31T14:31:38;25.40;59.80
1379;DHT22;683;48.738;9.226;2023-07-31T14:34:08;25.30;60.20
1379;DHT22;683;48.738;9.226;2023-07-31T14:36:37;25.40;60.70
1379;DHT22;683;48.738;9.226;2023-07-31T14:39:09;25.40;60.80
1379;DHT22;683;48.738;9.226;2023-07-31T14:41:36;25.40;60.80
1379;DHT22;683;48.738;9.226;2023-07-31T14:44:03;25.40;61.60
1379;DHT22;683;48.738;9.226;2023-07-31T14:46:30;25.40;60.70
1379;DHT22;683;48.738;9.226;2023-07-31T14:48:58;25.50;60.60
1379;DHT22;683;48.738;9.226;2023-07-31T14:51:25;25.90;60.00
1379;DHT22;683;48.738;9.226;2023-07-31T14:53:52;26.50;58.80
1379;DHT22;683;48.738;9.226;2023-07-31T14:56:23;26.90;58.00
1379;DHT22;683;48.738;9.226;2023-07-31T14:58:52;27.20;56.30
1379;DHT22;683;48.738;9.226;2023-07-31T15:01:19;27.40;55.30
1379;DHT22;683;48.738;9.226;2023-07-31T15:03:46;27.50;54.80
1379;DHT22;683;48.738;9.226;2023-07-31T15:06:13;27.80;54.80
1379;DHT22;683;48.738;9.226;2023-07-31T15:08:40;28.10;53.80
1379;DHT22;683;48.738;9.226;2023-07-31T15:11:09;28.10;53.60
1379;DHT22;683;48.738;9.226;2023-07-31T15:13:38;28.20;53.30
1379;DHT22;683;48.738;9.226;2023-07-31T15:16:05;28.20;53.40
1379;DHT22;683;48.738;9.226;2023-07-31T15:18:32;28.90;52.30
1379;DHT22;683;48.738;9.226;2023-07-31T15:21:00;30.00;51.50
1379;DHT22;683;48.738;9.226;2023-07-31T15:23:27;31.60;48.20
1379;DHT22;683;48.738;9.226;2023-07-31T15:25:54;32.30;45.90
1379;DHT22;683;48.738;9.226;2023-07-31T15:28:24;31.70;46.20
1379;DHT22;683;48.738;9.226;2023-07-31T15:30:53;30.90;47.40
1379;DHT22;683;48.738;9.226;2023-07-31T15:33:20;30.20;48.00
1379;DHT22;683;48.738;9.226;2023-07-31T15:35:47;29.90;48.70
1379;DHT22;683;48.738;9.226;2023-07-31T15:38:14;30.90;48.40
1379;DHT22;683;48.738;9.226;2023-07-31T15:40:42;32.60;45.90
1379;DHT22;683;48.738;9.226;2023-07-31T15:43:09;33.90;42.70
1379;DHT22;683;48.738;9.226;2023-07-31T15:45:37;34.00;42.50
1379;DHT22;683;48.738;9.226;2023-07-31T15:48:05;33.80;42.00
1379;DHT22;683;48.738;9.226;2023-07-31T15:50:32;33.80;42.00
1379;DHT22;683;48.738;9.226;2023-07-31T15:52:59;34.00;42.20
1379;DHT22;683;48.738;9.226;2023-07-31T15:55:27;34.30;42.00
1379;DHT22;683;48.738;9.226;2023-07-31T15:57:54;34.80;41.40
1379;DHT22;683;48.738;9.226;2023-07-31T16:00:21;35.50;40.90
1379;DHT22;683;48.738;9.226;2023-07-31T16:02:49;36.10;39.80
1379;DHT22;683;48.738;9.226;2023-07-31T16:05:17;37.10;39.30
1379;DHT22;683;48.738;9.226;2023-07-31T16:07:45;38.00;36.60
1379;DHT22;683;48.738;9.226;2023-07-31T16:10:12;38.80;35.50
1379;DHT22;683;48.738;9.226;2023-07-31T16:12:39;38.70;35.00
1379;DHT22;683;48.738;9.226;2023-07-31T16:15:07;38.50;35.10
1379;DHT22;683;48.738;9.226;2023-07-31T16:17:35;38.50;35.10
1379;DHT22;683;48.738;9.226;2023-07-31T16:20:02;37.80;34.20
1379;DHT22;683;48.738;9.226;2023-07-31T16:22:31;37.00;35.60
1379;DHT22;683;48.738;9.226;2023-07-31T16:24:58;36.70;35.90